Denver, Colorado
Current Conditions -  °F | °C
As of 4:58 PM on Tuesday 25 Nov 2014 (Local Time) from KBKF Reporting Station
Broken Clouds Broken Clouds  
Wind Chill:   Ceiling: 22000
Heat Index:   Visibility: 10mi
Dew Point: -7°   Wind: 18mph
Humidity: 40%   Direction: 280°W
Pressure: 29.92"   Gusts: 25mph
Location:  39.74°N, 104.99°W
Report Text: KBKF 252358Z 28016G22KT 10SM FEW060 SCT120 BKN220 06/M07 A2992 RMK AO2A PK WND 29028/40 SLP136 T00611067 10078 20055 53014
Loading
Personal Weather Stations






























Interactive Weather Map New forecast layout! Learn more

10-Day Weather Forecast

Advertisements
Track Severe Weather on mobile